Time;durP1;ratioP1;P1;durP2;ratioP2;P2;SDS_P1;SDS_P2;PMS_P1;PMS_P2;Temp;Humidity;BMP_temperature;BMP_pressure;BME280_temperature;BME280_humidity;BME280_pressure;Samples;Min_cycle;Max_cycle;Signal;HPM_P1;HPM_P2
2023/06/01 00:01:40;;;;;;;0.13;0.13;;;;;;;13.57;63.06;97843.41;5032584;28;20038;-70
2023/06/01 00:04:08;;;;;;;0.10;0.10;;;;;;;13.52;63.52;97851.25;5032431;28;20056;-69
2023/06/01 00:06:35;;;;;;;0.10;0.10;;;;;;;13.52;63.44;97840.50;5031498;28;20041;-70
2023/06/01 00:09:03;;;;;;;0.10;0.10;;;;;;;13.51;63.35;97852.28;5028666;28;20507;-70
2023/06/01 00:11:32;;;;;;;0.20;0.20;;;;;;;13.56;63.08;97857.84;5032160;28;20053;-70
2023/06/01 00:14:00;;;;;;;0.10;0.10;;;;;;;13.55;62.94;97853.50;5031519;28;20041;-70
2023/06/01 00:16:28;;;;;;;0.20;0.20;;;;;;;13.51;63.50;97844.22;5036578;28;20496;-72
2023/06/01 00:18:56;;;;;;;0.10;0.10;;;;;;;13.49;63.13;97852.50;5031678;28;20385;-72
2023/06/01 00:21:24;;;;;;;0.20;0.20;;;;;;;13.54;62.96;97841.13;5031815;28;20079;-70
2023/06/01 00:23:51;;;;;;;0.20;0.20;;;;;;;13.50;63.05;97851.44;5032110;28;20057;-71
2023/06/01 00:26:19;;;;;;;0.15;0.15;;;;;;;13.55;62.91;97840.09;5030958;28;20051;-72
2023/06/01 00:28:52;;;;;;;0.10;0.10;;;;;;;13.49;63.09;97847.13;5031461;28;20046;-71
2023/06/01 00:31:19;;;;;;;0.20;0.20;;;;;;;13.45;63.36;97848.56;5031447;28;20412;-70
2023/06/01 00:33:47;;;;;;;0.10;0.10;;;;;;;13.41;63.34;97844.63;5014297;28;20045;-73
2023/06/01 00:36:15;;;;;;;0.10;0.10;;;;;;;13.28;63.68;97841.16;5030053;28;20073;-72
2023/06/01 00:38:42;;;;;;;0.13;0.13;;;;;;;13.14;64.34;97835.78;5010303;28;20053;-70
2023/06/01 00:41:10;;;;;;;0.22;0.22;;;;;;;13.13;64.12;97835.94;5002010;28;20141;-69
2023/06/01 00:43:38;;;;;;;0.20;0.20;;;;;;;13.09;64.34;97842.72;5019182;28;20076;-70
2023/06/01 00:46:08;;;;;;;0.10;0.10;;;;;;;13.08;64.20;97839.22;5029118;28;20272;-69
2023/06/01 00:48:35;;;;;;;0.10;0.10;;;;;;;13.17;63.48;97840.72;5031809;28;20109;-69
2023/06/01 00:51:03;;;;;;;0.28;0.28;;;;;;;13.14;63.89;97834.94;5014152;28;20048;-69
2023/06/01 00:53:31;;;;;;;0.20;0.20;;;;;;;13.10;64.06;97834.47;5014455;28;20104;-69
2023/06/01 00:55:59;;;;;;;0.20;0.20;;;;;;;13.00;64.33;97836.75;5009166;28;20052;-69
2023/06/01 00:58:27;;;;;;;0.10;0.10;;;;;;;12.91;64.70;97837.13;5011823;28;20069;-69
2023/06/01 01:00:55;;;;;;;0.10;0.10;;;;;;;12.84;65.00;97837.13;5032343;28;20057;-69
2023/06/01 01:03:25;;;;;;;0.17;0.17;;;;;;;12.75;65.30;97831.16;5035147;28;20045;-71
2023/06/01 01:06:11;;;;;;;0.20;0.20;;;;;;;12.69;65.59;97831.09;5018489;28;20041;-70
2023/06/01 01:08:47;;;;;;;0.10;0.10;;;;;;;12.56;66.11;97828.41;5011005;28;20452;-70
2023/06/01 01:11:19;;;;;;;0.20;0.20;;;;;;;12.57;65.82;97828.19;5032385;28;20382;-70
2023/06/01 01:13:49;;;;;;;0.20;0.20;;;;;;;12.64;65.84;97828.22;5014760;28;20467;-70
2023/06/01 01:16:24;;;;;;;0.20;0.20;;;;;;;12.73;64.92;97825.16;5013649;28;20064;-70
2023/06/01 01:18:58;;;;;;;0.10;0.10;;;;;;;12.78;64.61;97830.72;5029262;28;20045;-70
2023/06/01 01:21:31;;;;;;;0.17;0.17;;;;;;;12.79;64.80;97834.22;5012601;28;20045;-70
2023/06/01 01:24:07;;;;;;;;;;;;;;;12.63;65.49;97835.44;5031693;28;20673;-70
2023/06/01 01:26:45;;;;;;;0.20;0.20;;;;;;;12.40;66.04;97834.94;5012253;28;19980;-71
2023/06/01 01:29:15;;;;;;;0.20;0.20;;;;;;;12.44;65.86;97836.19;5013173;28;20051;-69
2023/06/01 01:31:44;;;;;;;0.10;0.10;;;;;;;12.53;65.46;97835.00;5006318;28;20042;-69
2023/06/01 01:34:11;;;;;;;0.20;0.20;;;;;;;12.40;66.27;97827.72;5013348;28;20060;-69
2023/06/01 01:36:39;;;;;;;0.10;0.10;;;;;;;12.31;66.55;97826.25;5032359;28;20033;-70
2023/06/01 01:39:07;;;;;;;0.17;0.17;;;;;;;12.28;66.95;97823.97;5011751;28;20128;-70
2023/06/01 01:41:34;;;;;;;0.10;0.10;;;;;;;12.32;66.30;97827.09;5014729;28;20046;-69
2023/06/01 01:44:03;;;;;;;0.10;0.10;;;;;;;12.30;66.42;97821.09;5033188;28;20135;-70
2023/06/01 01:46:37;;;;;;;0.25;0.25;;;;;;;12.48;65.47;97822.19;5020412;28;20037;-70
2023/06/01 01:49:10;;;;;;;0.20;0.20;;;;;;;12.30;66.20;97813.91;5033662;28;20069;-70
2023/06/01 01:51:42;;;;;;;0.17;0.17;;;;;;;12.30;66.06;97819.25;5012399;28;20136;-69
2023/06/01 01:54:11;;;;;;;0.10;0.10;;;;;;;12.37;65.87;97821.94;5018656;28;20052;-70
2023/06/01 01:56:39;;;;;;;0.15;0.15;;;;;;;12.23;66.59;97822.94;5023408;28;20493;-69
2023/06/01 01:59:07;;;;;;;0.20;0.20;;;;;;;12.21;66.64;97815.09;5015741;28;20053;-69
2023/06/01 02:01:37;;;;;;;0.10;0.10;;;;;;;12.28;66.26;97815.13;5019405;28;20049;-72
2023/06/01 02:04:07;;;;;;;0.20;0.20;;;;;;;12.22;66.63;97811.41;5030978;28;20041;-69
2023/06/01 02:06:36;;;;;;;0.20;0.20;;;;;;;12.09;66.80;97805.97;5032339;28;20574;-70
2023/06/01 02:09:06;;;;;;;0.10;0.10;;;;;;;11.99;67.19;97806.34;5017244;28;20116;-70
2023/06/01 02:11:34;;;;;;;0.20;0.20;;;;;;;11.90;67.29;97812.88;5015429;28;20045;-69
2023/06/01 02:14:02;;;;;;;0.10;0.10;;;;;;;11.84;67.45;97811.00;5013679;28;20543;-73
2023/06/01 02:16:30;;;;;;;0.15;0.15;;;;;;;11.79;67.48;97800.06;5038987;28;20044;-70
2023/06/01 02:18:59;;;;;;;0.10;0.10;;;;;;;11.78;67.62;97811.78;5037214;28;20095;-70
2023/06/01 02:21:27;;;;;;;0.13;0.13;;;;;;;11.81;67.03;97806.06;5014546;28;20045;-70
2023/06/01 02:24:04;;;;;;;0.10;0.10;;;;;;;11.73;67.70;97801.63;5019611;28;20406;-71
2023/06/01 02:26:31;;;;;;;0.20;0.20;;;;;;;11.68;67.63;97797.91;5036372;28;20046;-69
2023/06/01 02:28:59;;;;;;;0.10;0.10;;;;;;;11.74;67.56;97794.44;5041683;28;20043;-69
2023/06/01 02:31:27;;;;;;;0.10;0.10;;;;;;;11.73;67.64;97795.50;5019258;28;20073;-69
2023/06/01 02:33:55;;;;;;;0.10;0.10;;;;;;;11.73;67.62;97798.16;5037305;28;20042;-69
2023/06/01 02:36:25;;;;;;;0.20;0.20;;;;;;;11.60;67.94;97800.75;5018777;28;20053;-69
2023/06/01 02:38:53;;;;;;;0.10;0.10;;;;;;;11.55;68.18;97797.81;5022473;28;20049;-69
2023/06/01 02:41:23;;;;;;;0.13;0.13;;;;;;;11.56;67.87;97797.63;5026349;28;20416;-69
2023/06/01 02:43:51;;;;;;;0.10;0.10;;;;;;;11.45;68.46;97787.47;5016385;28;20049;-70
2023/06/01 02:46:19;;;;;;;0.10;0.10;;;;;;;11.38;68.71;97790.13;5018965;28;20049;-69
2023/06/01 02:48:48;;;;;;;0.20;0.20;;;;;;;11.40;68.49;97798.78;5041148;23;20107;-72
2023/06/01 02:51:18;;;;;;;0.13;0.13;;;;;;;11.40;68.55;97797.94;5017164;28;20069;-72
2023/06/01 02:53:50;;;;;;;0.20;0.20;;;;;;;11.40;68.55;97789.94;5015827;28;20049;-72
2023/06/01 02:56:18;;;;;;;0.20;0.20;;;;;;;11.31;68.82;97791.94;5014763;28;20128;-72
2023/06/01 02:58:54;;;;;;;0.10;0.10;;;;;;;11.46;68.26;97788.31;5015080;28;20037;-71
2023/06/01 03:01:35;;;;;;;0.20;0.20;;;;;;;11.55;68.15;97787.13;5029874;28;20045;-72
2023/06/01 03:04:04;;;;;;;0.10;0.10;;;;;;;11.52;67.92;97793.72;5021884;28;20048;-72
2023/06/01 03:06:37;;;;;;;0.20;0.20;;;;;;;11.59;67.48;97788.41;5018036;28;20052;-73
2023/06/01 03:09:25;;;;;;;0.10;0.10;;;;;;;11.53;67.81;97779.31;5038473;28;20049;-73
2023/06/01 03:11:56;;;;;;;0.28;0.28;;;;;;;11.49;67.71;97780.72;5022222;28;20063;-72
2023/06/01 03:14:24;;;;;;;0.13;0.13;;;;;;;11.60;67.32;97782.88;5020842;28;20159;-72
2023/06/01 03:16:51;;;;;;;0.20;0.20;;;;;;;11.36;68.02;97777.97;5021476;28;20131;-73
2023/06/01 03:19:21;;;;;;;0.20;0.20;;;;;;;11.12;69.13;97781.06;5022944;28;20069;-72
2023/06/01 03:21:52;;;;;;;0.32;0.32;;;;;;;11.05;69.09;97781.00;5018933;28;20041;-73
2023/06/01 03:24:27;;;;;;;0.10;0.10;;;;;;;10.94;69.57;97778.88;5042661;28;20102;-73
2023/06/01 03:26:58;;;;;;;0.22;0.22;;;;;;;10.82;69.89;97781.22;4998953;28;20050;-73
2023/06/01 03:29:27;;;;;;;0.15;0.15;;;;;;;10.76;70.09;97781.16;5016692;28;20046;-73
2023/06/01 03:31:55;;;;;;;0.10;0.10;;;;;;;10.69;70.38;97780.28;5023262;28;20496;-73
2023/06/01 03:34:24;;;;;;;0.20;0.20;;;;;;;10.58;70.69;97779.78;5017597;28;20057;-73
2023/06/01 03:36:52;;;;;;;0.10;0.10;;;;;;;10.80;69.69;97783.25;5035156;28;20052;-73
2023/06/01 03:39:19;;;;;;;0.10;0.10;;;;;;;10.77;70.12;97780.16;5017186;28;20404;-73
2023/06/01 03:41:48;;;;;;;0.20;0.20;;;;;;;10.66;70.49;97778.81;5038107;28;20049;-73
2023/06/01 03:44:16;;;;;;;0.20;0.20;;;;;;;10.85;70.10;97783.50;5025017;28;20048;-73
2023/06/01 03:46:45;;;;;;;0.20;0.20;;;;;;;10.99;69.36;97787.13;5024969;28;20052;-72
2023/06/01 03:49:13;;;;;;;0.10;0.10;;;;;;;11.04;69.10;97782.03;5005675;28;20044;-72
2023/06/01 03:51:41;;;;;;;0.20;0.20;;;;;;;11.06;69.24;97784.50;5037134;28;20676;-72
2023/06/01 03:54:10;;;;;;;0.20;0.20;;;;;;;11.01;69.58;97795.75;5014124;28;20045;-72
2023/06/01 03:56:37;;;;;;;0.20;0.20;;;;;;;11.04;69.47;97782.84;5017082;28;20064;-72
2023/06/01 03:59:10;;;;;;;0.22;0.22;;;;;;;11.19;69.26;97776.63;5017491;28;20076;-72
2023/06/01 04:01:40;;;;;;;0.15;0.15;;;;;;;11.47;68.10;97776.59;5013890;28;20076;-72
2023/06/01 04:04:08;;;;;;;0.15;0.15;;;;;;;11.55;67.61;97782.59;5022544;28;20076;-73
2023/06/01 04:06:36;;;;;;;0.10;0.10;;;;;;;11.57;67.05;97785.91;5024551;28;20400;-73
2023/06/01 04:09:06;;;;;;;0.20;0.20;;;;;;;11.26;68.41;97777.47;5033777;28;21149;-73
2023/06/01 04:11:35;;;;;;;0.20;0.20;;;;;;;11.06;69.19;97787.19;5020491;28;20033;-73
2023/06/01 04:14:03;;;;;;;0.10;0.10;;;;;;;11.10;68.91;97791.13;5026409;28;20045;-73
2023/06/01 04:16:32;;;;;;;0.20;0.20;;;;;;;11.13;68.97;97786.22;5014323;28;20040;-72
2023/06/01 04:19:00;;;;;;;0.30;0.30;;;;;;;11.17;68.73;97784.81;5015039;28;20080;-73
2023/06/01 04:21:32;;;;;;;0.20;0.20;;;;;;;11.25;68.48;97782.00;5019666;28;20048;-73
2023/06/01 04:24:00;;;;;;;0.10;0.10;;;;;;;11.10;69.27;97780.44;5010888;28;20046;-73
2023/06/01 04:26:28;;;;;;;0.10;0.10;;;;;;;11.15;69.03;97781.50;5031472;28;20532;-72
2023/06/01 04:28:57;;;;;;;0.10;0.10;;;;;;;11.12;69.13;97784.56;5015227;28;20041;-72
2023/06/01 04:31:25;;;;;;;0.20;0.20;;;;;;;11.28;68.41;97776.28;5021059;28;20076;-73
2023/06/01 04:33:56;;;;;;;0.20;0.20;;;;;;;11.25;68.54;97787.34;5012324;28;20041;-72
2023/06/01 04:36:25;;;;;;;0.20;0.20;;;;;;;11.12;69.33;97784.56;5004337;28;20075;-72
2023/06/01 04:38:57;;;;;;;0.30;0.20;;;;;;;11.12;69.39;97784.56;5014065;28;20033;-72
2023/06/01 04:41:25;;;;;;;0.20;0.20;;;;;;;11.48;68.13;97788.94;5018547;28;20053;-72
2023/06/01 04:43:53;;;;;;;0.20;0.20;;;;;;;11.50;68.06;97782.38;5022767;28;20041;-72
2023/06/01 04:46:25;;;;;;;0.20;0.20;;;;;;;11.29;69.33;97791.28;5011966;28;20081;-72
2023/06/01 04:49:00;;;;;;;0.10;0.10;;;;;;;11.36;69.05;97789.47;5014727;28;20048;-72
2023/06/01 04:51:30;;;;;;;0.20;0.20;;;;;;;11.51;68.47;97786.72;5013268;28;20049;-72
2023/06/01 04:53:59;;;;;;;0.20;0.20;;;;;;;11.53;68.45;97787.31;5018591;28;20052;-72
2023/06/01 04:56:27;;;;;;;0.20;0.20;;;;;;;11.79;67.51;97783.19;5021439;28;20080;-72
2023/06/01 04:58:56;;;;;;;0.10;0.10;;;;;;;11.65;67.98;97782.25;5032496;28;20076;-72
2023/06/01 05:01:29;;;;;;;0.17;0.17;;;;;;;11.74;68.07;97781.06;5015378;28;20536;-72
2023/06/01 05:03:58;;;;;;;0.20;0.20;;;;;;;11.80;67.74;97776.84;5043419;28;20037;-71
2023/06/01 05:06:27;;;;;;;0.10;0.10;;;;;;;11.78;67.93;97779.69;5021724;28;20041;-72
2023/06/01 05:08:55;;;;;;;0.20;0.20;;;;;;;11.87;67.41;97775.00;5013679;28;20133;-72
2023/06/01 05:11:24;;;;;;;0.20;0.20;;;;;;;11.84;68.02;97776.22;5000099;28;20128;-72
2023/06/01 05:13:52;;;;;;;0.20;0.20;;;;;;;11.89;67.60;97776.47;5013310;28;20507;-72
2023/06/01 05:16:20;;;;;;;0.25;0.25;;;;;;;11.94;67.60;97776.69;5016328;28;20045;-72
2023/06/01 05:18:51;;;;;;;0.30;0.30;;;;;;;12.04;67.42;97776.34;5017850;28;20124;-72
2023/06/01 05:21:20;;;;;;;0.20;0.20;;;;;;;11.86;68.18;97776.84;5014696;28;20042;-72
2023/06/01 05:23:48;;;;;;;0.17;0.17;;;;;;;12.07;67.37;97773.25;5024134;28;20056;-72
2023/06/01 05:26:15;;;;;;;0.20;0.20;;;;;;;12.18;67.18;97771.84;5016267;28;20042;-72
2023/06/01 05:28:43;;;;;;;0.10;0.10;;;;;;;12.29;66.84;97774.78;5022008;28;20080;-72
2023/06/01 05:31:11;;;;;;;0.17;0.17;;;;;;;12.52;66.34;97768.25;5022372;28;20091;-72
2023/06/01 05:33:44;;;;;;;0.30;0.20;;;;;;;12.56;66.14;97774.88;5022818;28;20037;-72
2023/06/01 05:36:12;;;;;;;0.20;0.20;;;;;;;12.63;65.96;97771.16;5015475;28;20053;-72
2023/06/01 05:38:41;;;;;;;0.20;0.20;;;;;;;12.63;65.89;97767.66;5019233;28;20044;-72
2023/06/01 05:41:09;;;;;;;0.10;0.10;;;;;;;12.50;65.97;97761.25;5028223;28;20042;-72
2023/06/01 05:43:37;;;;;;;0.10;0.10;;;;;;;12.46;66.46;97770.69;5015622;28;20040;-72
2023/06/01 05:46:06;;;;;;;0.20;0.20;;;;;;;12.68;66.25;97771.38;5011641;28;20049;-72
2023/06/01 05:48:34;;;;;;;0.10;0.10;;;;;;;12.86;65.85;97773.47;5023364;28;20052;-72
2023/06/01 05:51:05;;;;;;;0.15;0.15;;;;;;;12.88;65.83;97764.19;5006179;28;20038;-72
2023/06/01 05:53:32;;;;;;;0.20;0.20;;;;;;;13.03;65.19;97769.34;5009196;28;20110;-72
2023/06/01 05:56:02;;;;;;;0.20;0.20;;;;;;;12.88;65.38;97763.34;5016774;28;20112;-72
2023/06/01 05:58:30;;;;;;;0.10;0.10;;;;;;;13.02;65.17;97767.69;5013368;28;20512;-72
2023/06/01 06:00:58;;;;;;;0.20;0.20;;;;;;;13.18;64.76;97769.19;5010839;28;20051;-72
2023/06/01 06:03:27;;;;;;;0.10;0.10;;;;;;;13.31;64.24;97774.53;5021554;28;20125;-72
2023/06/01 06:05:55;;;;;;;0.20;0.20;;;;;;;13.44;63.93;97771.00;5039294;28;20059;-72
2023/06/01 06:08:23;;;;;;;0.15;0.15;;;;;;;13.49;63.46;97771.22;5035876;28;20049;-72
2023/06/01 06:10:50;;;;;;;0.10;0.10;;;;;;;13.62;63.68;97773.84;5033984;28;20128;-72
2023/06/01 06:13:20;;;;;;;0.20;0.20;;;;;;;13.71;63.05;97774.47;5031426;28;20497;-72
2023/06/01 06:15:47;;;;;;;0.20;0.20;;;;;;;13.82;63.53;97771.13;5026969;28;20045;-72
2023/06/01 06:18:15;;;;;;;0.20;0.20;;;;;;;13.95;63.10;97766.56;5011706;28;20549;-72
2023/06/01 06:20:42;;;;;;;0.13;0.13;;;;;;;14.13;62.48;97773.09;5036396;28;20610;-72
2023/06/01 06:23:11;;;;;;;0.20;0.20;;;;;;;14.24;62.68;97775.09;5042635;28;20038;-72
2023/06/01 06:25:39;;;;;;;0.30;0.30;;;;;;;14.41;62.13;97770.13;5031973;28;20038;-72
2023/06/01 06:28:08;;;;;;;0.10;0.10;;;;;;;14.46;61.79;97773.78;5029967;28;20590;-71
2023/06/01 06:30:36;;;;;;;0.10;0.10;;;;;;;14.60;61.25;97763.81;5033738;28;20441;-73
2023/06/01 06:33:04;;;;;;;0.20;0.20;;;;;;;14.77;60.48;97767.63;5033388;28;20048;-72
2023/06/01 06:35:38;;;;;;;0.20;0.20;;;;;;;14.93;60.39;97768.97;5034051;28;20137;-71
2023/06/01 06:38:06;;;;;;;0.10;0.10;;;;;;;15.10;59.87;97770.06;5051528;28;20304;-71
2023/06/01 06:40:34;;;;;;;0.17;0.17;;;;;;;15.31;59.11;97753.56;5038180;28;20392;-71
2023/06/01 06:43:01;;;;;;;0.20;0.20;;;;;;;15.40;58.74;97763.00;5016891;28;20124;-71
2023/06/01 06:45:29;;;;;;;0.25;0.13;;;;;;;15.58;59.30;97756.00;5019374;28;20049;-71
2023/06/01 06:47:58;;;;;;;0.10;0.10;;;;;;;15.66;58.63;97761.94;5020785;28;20141;-71
2023/06/01 06:50:25;;;;;;;0.20;0.20;;;;;;;15.81;58.86;97755.38;5036689;28;20072;-71
2023/06/01 06:52:53;;;;;;;0.30;0.30;;;;;;;15.99;58.55;97760.75;5033488;28;20059;-71
2023/06/01 06:55:21;;;;;;;0.22;0.22;;;;;;;16.15;57.36;97754.75;5036180;28;20431;-71
2023/06/01 06:57:49;;;;;;;0.10;0.10;;;;;;;16.32;57.41;97761.16;5032742;28;20111;-73
2023/06/01 07:00:18;;;;;;;0.20;0.20;;;;;;;16.45;57.40;97755.63;5042257;28;20037;-71
2023/06/01 07:02:46;;;;;;;0.03;0.03;;;;;;;16.60;56.90;97752.53;5032631;28;20412;-71
2023/06/01 07:05:15;;;;;;;0.10;0.10;;;;;;;16.63;56.20;97751.25;5041201;28;20076;-73
2023/06/01 07:07:43;;;;;;;0.10;0.10;;;;;;;16.48;56.97;97755.16;5031252;28;20092;-71
2023/06/01 07:10:11;;;;;;;0.10;0.10;;;;;;;16.73;56.51;97748.81;5029210;28;20044;-71
2023/06/01 07:12:38;;;;;;;0.10;0.10;;;;;;;16.91;55.71;97747.94;5025562;28;20049;-71
2023/06/01 07:15:07;;;;;;;0.10;0.10;;;;;;;17.09;56.05;97742.47;5035245;28;20041;-71
2023/06/01 07:17:35;;;;;;;0.10;0.10;;;;;;;17.24;55.51;97750.91;5030593;28;20461;-72
2023/06/01 07:20:06;;;;;;;0.20;0.20;;;;;;;17.42;54.78;97742.75;5036051;28;20056;-72
2023/06/01 07:22:35;;;;;;;0.10;0.10;;;;;;;17.62;54.10;97742.38;5035262;28;20110;-71
2023/06/01 07:25:02;;;;;;;0.13;0.10;;;;;;;17.73;53.44;97744.28;5032045;28;20046;-72
2023/06/01 07:27:30;;;;;;;0.08;0.08;;;;;;;17.88;53.06;97738.38;5028777;28;20038;-72
2023/06/01 07:29:58;;;;;;;0.15;0.15;;;;;;;18.06;52.63;97735.53;5029568;28;20052;-72
2023/06/01 07:32:25;;;;;;;0.20;0.20;;;;;;;18.22;51.64;97742.06;5032839;28;20045;-72
2023/06/01 07:34:53;;;;;;;0.15;0.15;;;;;;;18.15;51.65;97733.28;5030170;28;20049;-72
2023/06/01 07:37:21;;;;;;;0.00;0.00;;;;;;;18.39;51.83;97731.31;5027705;28;20461;-72
2023/06/01 07:39:50;;;;;;;0.10;0.10;;;;;;;18.47;51.74;97729.06;5036132;28;20068;-72
2023/06/01 07:42:19;;;;;;;0.10;0.10;;;;;;;18.63;52.18;97712.06;5031257;28;20048;-72
2023/06/01 07:44:47;;;;;;;0.10;0.10;;;;;;;18.96;51.02;97721.31;5034129;28;20045;-72
2023/06/01 07:47:15;;;;;;;0.10;0.10;;;;;;;19.11;50.76;97713.41;5026962;28;20523;-72
2023/06/01 07:49:42;;;;;;;0.10;0.10;;;;;;;19.17;50.26;97715.16;5033310;28;20049;-72
2023/06/01 07:52:10;;;;;;;0.10;0.10;;;;;;;19.40;49.69;97714.97;5026358;28;20049;-72
2023/06/01 07:54:38;;;;;;;0.10;0.10;;;;;;;19.71;49.13;97715.44;5035448;28;20045;-72
2023/06/01 07:57:07;;;;;;;0.10;0.10;;;;;;;19.84;49.40;97717.78;5032357;28;20050;-72
2023/06/01 07:59:35;;;;;;;0.00;0.00;;;;;;;20.03;48.11;97705.59;5028944;28;20068;-73
2023/06/01 08:02:03;;;;;;;0.10;0.10;;;;;;;20.16;48.33;97715.19;5028790;28;20188;-72
2023/06/01 08:04:33;;;;;;;0.10;0.10;;;;;;;20.44;45.68;97715.03;5028438;28;20116;-72
2023/06/01 08:07:03;;;;;;;0.00;0.00;;;;;;;20.45;46.60;97713.94;5031278;28;20049;-72
2023/06/01 08:09:31;;;;;;;0.10;0.10;;;;;;;20.69;45.95;97709.03;5026728;28;20041;-72
2023/06/01 08:11:59;;;;;;;0.10;0.10;;;;;;;20.74;45.47;97698.25;5024885;28;20040;-72
2023/06/01 08:14:28;;;;;;;0.10;0.10;;;;;;;20.93;44.43;97698.69;5040160;28;20501;-71
2023/06/01 08:16:56;;;;;;;0.10;0.10;;;;;;;21.11;43.84;97701.00;5038325;28;20081;-72
2023/06/01 08:19:27;;;;;;;0.10;0.10;;;;;;;21.11;44.56;97701.00;5034768;28;20124;-71
2023/06/01 08:21:54;;;;;;;0.10;0.10;;;;;;;21.36;43.88;97702.31;5037665;28;20038;-71
2023/06/01 08:24:24;;;;;;;0.10;0.10;;;;;;;21.37;43.92;97698.53;5044467;28;20052;-73
2023/06/01 08:26:56;;;;;;;0.10;0.10;;;;;;;21.53;43.82;97692.91;5021253;28;20384;-72
2023/06/01 08:29:23;;;;;;;0.10;0.10;;;;;;;21.41;43.14;97686.03;5028876;28;20060;-74
2023/06/01 08:32:10;;;;;;;0.03;0.03;;;;;;;21.14;41.24;97683.38;5010873;28;20038;-73
2023/06/01 08:34:37;;;;;;;0.10;0.10;;;;;;;20.75;43.22;97680.91;5034579;28;20064;-73
2023/06/01 08:37:06;;;;;;;0.00;0.00;;;;;;;20.71;43.64;97674.34;5038348;28;20141;-73
2023/06/01 08:39:33;;;;;;;0.10;0.10;;;;;;;20.93;43.19;97681.59;5037048;28;20428;-72
2023/06/01 08:42:07;;;;;;;0.05;0.05;;;;;;;21.30;42.16;97676.19;5011406;28;20424;-75
2023/06/01 08:44:40;;;;;;;0.10;0.10;;;;;;;21.37;42.61;97676.78;5030152;28;20408;-72
2023/06/01 08:47:09;;;;;;;0.10;0.10;;;;;;;21.31;41.55;97675.09;5011973;28;20050;-73
2023/06/01 08:49:37;;;;;;;0.13;0.10;;;;;;;21.63;41.26;97669.59;5049647;23;20125;-70
2023/06/01 08:52:09;;;;;;;0.10;0.10;;;;;;;21.86;40.72;97674.63;5030818;28;20049;-70
2023/06/01 08:54:37;;;;;;;0.10;0.10;;;;;;;22.25;38.20;97667.72;5027720;28;20048;-70
2023/06/01 08:57:07;;;;;;;0.10;0.10;;;;;;;22.65;37.30;97663.44;5028197;28;20528;-71
2023/06/01 08:59:36;;;;;;;0.00;0.00;;;;;;;22.94;36.35;97669.25;5027059;28;20064;-70
2023/06/01 09:02:04;;;;;;;0.10;0.10;;;;;;;23.11;36.25;97664.31;5036077;28;20124;-70
2023/06/01 09:04:37;;;;;;;0.10;0.10;;;;;;;22.99;35.74;97661.88;5036907;28;20522;-70
2023/06/01 09:07:05;;;;;;;0.10;0.10;;;;;;;23.18;37.20;97661.31;5030441;28;20068;-70
2023/06/01 09:09:33;;;;;;;0.15;0.15;;;;;;;22.75;37.02;97652.59;5031386;28;20033;-71
2023/06/01 09:12:17;;;;;;;0.10;0.10;;;;;;;23.34;36.24;97652.88;5040962;28;20041;-70
2023/06/01 09:14:45;;;;;;;0.00;0.00;;;;;;;23.74;35.41;97649.25;5043859;28;20053;-70
2023/06/01 09:17:14;;;;;;;0.10;0.10;;;;;;;23.17;36.41;97652.31;5037463;28;20059;-70
2023/06/01 09:19:44;;;;;;;0.00;0.00;;;;;;;23.48;36.65;97646.81;5033801;28;20041;-70
2023/06/01 09:22:12;;;;;;;0.10;0.10;;;;;;;23.76;36.23;97649.78;5033454;28;20044;-71
2023/06/01 09:24:41;;;;;;;0.00;0.00;;;;;;;24.05;34.99;97649.13;5012818;28;20051;-70
2023/06/01 09:27:09;;;;;;;0.10;0.10;;;;;;;24.09;33.79;97642.81;5027950;28;20038;-71
2023/06/01 09:29:36;;;;;;;0.00;0.00;;;;;;;23.86;34.29;97646.22;5031894;28;20049;-70
2023/06/01 09:32:05;;;;;;;0.00;0.00;;;;;;;24.18;33.71;97651.25;5032414;28;20038;-71
2023/06/01 09:34:33;;;;;;;0.03;0.03;;;;;;;24.60;33.32;97644.47;5049587;28;20123;-70
2023/06/01 09:37:07;;;;;;;0.08;0.08;;;;;;;24.84;33.85;97643.47;5040674;28;20037;-71
2023/06/01 09:39:35;;;;;;;0.00;0.00;;;;;;;24.54;33.94;97638.22;5022933;28;20064;-69
2023/06/01 09:42:03;;;;;;;0.00;0.00;;;;;;;24.38;34.05;97645.72;5037417;28;20060;-70
2023/06/01 09:44:32;;;;;;;0.00;0.00;;;;;;;24.73;34.14;97643.81;5035556;28;20446;-70
2023/06/01 09:47:00;;;;;;;0.00;0.00;;;;;;;24.63;33.98;97630.25;5041516;28;20403;-70
2023/06/01 09:49:30;;;;;;;0.00;0.00;;;;;;;24.67;33.88;97632.13;5041288;28;20053;-71
2023/06/01 09:52:14;;;;;;;0.00;0.00;;;;;;;25.02;33.30;97627.53;5041391;28;20106;-70
2023/06/01 09:54:44;;;;;;;0.10;0.10;;;;;;;25.21;33.15;97629.25;5038752;28;20404;-71
2023/06/01 09:57:12;;;;;;;0.00;0.00;;;;;;;25.43;32.82;97628.75;5032236;28;20083;-71
2023/06/01 09:59:42;;;;;;;0.00;0.00;;;;;;;24.92;33.47;97630.31;5031524;28;20064;-71
2023/06/01 10:02:13;;;;;;;0.00;0.00;;;;;;;25.05;33.39;97619.56;5044247;28;20119;-71
2023/06/01 10:04:42;;;;;;;0.00;0.00;;;;;;;25.32;32.76;97620.94;5035627;28;20117;-71
2023/06/01 10:07:13;;;;;;;0.00;0.00;;;;;;;25.52;32.92;97623.47;5044935;28;20124;-70
2023/06/01 10:09:42;;;;;;;0.08;0.00;;;;;;;25.36;32.98;97621.97;5045652;28;20433;-71
2023/06/01 10:12:10;;;;;;;0.10;0.08;;;;;;;25.46;30.24;97617.22;5046033;28;20494;-71
2023/06/01 10:14:39;;;;;;;0.00;0.00;;;;;;;25.20;30.91;97624.88;5041708;28;20056;-71
2023/06/01 10:17:07;;;;;;;0.00;0.00;;;;;;;25.51;31.08;97625.38;5046246;28;20037;-70
2023/06/01 10:19:37;;;;;;;0.00;0.00;;;;;;;24.99;32.09;97614.44;5039750;28;20456;-71
2023/06/01 10:22:06;;;;;;;0.00;0.00;;;;;;;25.76;31.60;97610.63;5046813;28;20045;-70
2023/06/01 10:24:40;;;;;;;0.10;0.10;;;;;;;25.79;31.02;97614.69;5044985;28;20041;-71
2023/06/01 10:27:14;;;;;;;0.10;0.10;;;;;;;25.83;30.85;97608.38;5044615;28;20041;-70
2023/06/01 10:29:43;;;;;;;0.00;0.00;;;;;;;26.22;30.25;97615.50;5030718;28;20103;-71
2023/06/01 10:32:44;;;;;;;0.00;0.00;;;;;;;26.34;30.20;97615.91;5043259;28;20045;-71
2023/06/01 10:36:01;;;;;;;0.10;0.00;;;;;;;25.88;30.21;97600.06;5038644;28;20061;-71
2023/06/01 10:38:29;;;;;;;0.00;0.00;;;;;;;26.31;29.16;97602.81;5042476;28;20053;-71
2023/06/01 10:41:32;;;;;;;0.00;0.00;;;;;;;26.24;28.36;97599.59;5037388;28;20045;-70
2023/06/01 10:44:00;;;;;;;0.10;0.10;;;;;;;25.71;28.87;97597.03;5036142;28;20052;-70
2023/06/01 10:46:41;;;;;;;0.00;0.00;;;;;;;25.96;29.13;97595.88;5045694;28;20423;-70
2023/06/01 10:49:12;;;;;;;0.00;0.00;;;;;;;25.76;29.32;97587.91;5043368;28;20041;-71
2023/06/01 10:51:40;;;;;;;0.00;0.00;;;;;;;25.15;29.23;97588.56;5045600;28;20055;-70
2023/06/01 10:54:30;;;;;;;0.00;0.00;;;;;;;25.57;29.99;97585.13;5041845;28;20388;-71
2023/06/01 10:57:23;;;;;;;0.10;0.10;;;;;;;26.09;29.69;97588.88;5043286;28;20095;-71
2023/06/01 11:00:14;;;;;;;0.00;0.00;;;;;;;26.13;30.00;97585.25;5022141;28;20488;-71
2023/06/01 11:02:49;;;;;;;0.10;0.10;;;;;;;26.35;28.94;97568.28;5032642;28;20045;-71
2023/06/01 11:05:43;;;;;;;0.10;0.10;;;;;;;26.80;28.55;97566.69;5040201;28;20072;-72
2023/06/01 11:08:50;;;;;;;0.00;0.00;;;;;;;26.89;28.50;97561.38;5040438;28;20547;-70
2023/06/01 11:11:20;;;;;;;0.00;0.00;;;;;;;26.84;28.92;97559.53;5035543;28;20049;-71
2023/06/01 11:14:08;;;;;;;0.00;0.00;;;;;;;27.22;29.00;97553.94;5039419;28;20073;-71
2023/06/01 11:16:36;;;;;;;0.03;0.03;;;;;;;27.54;28.38;97561.25;5032455;28;20410;-70
2023/06/01 11:19:06;;;;;;;0.10;0.03;;;;;;;27.49;28.19;97551.22;5039817;28;20042;-71
2023/06/01 11:21:36;;;;;;;0.00;0.00;;;;;;;27.27;28.72;97546.44;5037855;28;20051;-71
2023/06/01 11:24:08;;;;;;;0.10;0.10;;;;;;;27.47;28.02;97547.97;5044957;28;20044;-71
2023/06/01 11:26:39;;;;;;;0.10;0.00;;;;;;;27.22;28.35;97545.69;5036496;28;20049;-70
2023/06/01 11:29:10;;;;;;;0.00;0.00;;;;;;;27.07;27.93;97544.09;5038512;28;20152;-70
2023/06/01 11:31:40;;;;;;;0.00;0.00;;;;;;;26.79;27.24;97528.66;5043704;28;20041;-71
2023/06/01 11:34:09;;;;;;;0.00;0.00;;;;;;;27.08;27.98;97534.75;5036247;28;20037;-71
2023/06/01 11:36:38;;;;;;;0.00;0.00;;;;;;;27.09;27.13;97535.56;5035677;28;20034;-70
2023/06/01 11:39:08;;;;;;;0.00;0.00;;;;;;;27.21;27.00;97531.19;5024579;28;20041;-71
2023/06/01 11:41:47;;;;;;;0.00;0.00;;;;;;;27.03;27.35;97534.81;5029894;28;20056;-70
2023/06/01 11:44:16;;;;;;;0.00;0.00;;;;;;;27.19;27.20;97522.47;5046790;28;20045;-70
2023/06/01 11:46:54;;;;;;;0.00;0.00;;;;;;;27.27;27.44;97512.72;5047991;28;20049;-72
2023/06/01 11:49:22;;;;;;;0.05;0.00;;;;;;;27.53;27.04;97523.97;5043041;28;20037;-72